Sabadell, Spain

5:57 PM CET on January 30, 2015 (GMT +0100)
Sabadell | Change Station
CLOSE
Current Station
Airport
Location: Sabadell,
Elevation: 820 ft
Nearby Weather Stations
Active Advisory: Snow/Ice

Elev 820 ft 41.52 °N, 2.11 °E | Updated 27 minutes ago

Mostly Cloudy
Mostly Cloudy
52 °F
Feels Like 52 °F
N
12
Wind Variable Wind from West

Today
High -- | Low -- °F
--% Chance of Precip.
Yesterday
High -- | Low -- °F
Precip. -- in
8:05 AM 6:04 PM
Waxing Gibbous, 84% visible
Pressure 29.24 in
Visibility 6.2 miles
Clouds Few 2500 ft
Mostly Cloudy 5000 ft
Dew Point 39 °F
Humidity 62%
Rainfall 0.00 in
Snow Depth Not available.
UV 0 out of 12
Pollen Not available.
Air Quality Not available.
Flu Activity Not available.
METAR LELL 301630Z 28010KT 9999 FEW025 BKN050 11/04 Q0990

More Conditions Fewer Conditions

Pressure 29.24 in
Visibility 6.2 miles
Clouds Few 2500 ft
Mostly Cloudy 5000 ft
Dew Point 39 °F
Humidity 62%
Rainfall 0.00 in
Snow Depth Not available.
UV 0 out of 12
Pollen Not available.
Air Quality Not available.
Flu Activity Not available.
METAR LELL 301630Z 28010KT 9999 FEW025 BKN050 11/04 Q0990

More Conditions Fewer Conditions

10-Day Weather Forecast

Almanac

Astronomy

Jan. 30, 2015 Rise Set
Actual Time
Civil Twilight
Nautical Twilight
Astronomical Twilight
Moon
Length Of Visible Light
Length of Day
Tomorrow will be .
, % of the Moon is Illuminated

Today's Extremes

Country Highs Country Lows

Community

WunderPhotos

Upload Photos

1,791,809 photos uploaded!

WunderBlogs® & News

Nearby

Air Quality

  Air Quality AQ Index Pollutant
Not available.

Snow Depth

Station Depth Elevation

Earthquake Activity

City Distance Mag. Time & Date
Minimum magnitude displayed is 2.5.

Coastal Water Temperatures

Place Temperature

Nearby Weather Stations